Terminal Aerodrome Forecast
Issued by NWS Lake Charles, LA

Home | Current Version | Previous Version | Text Only | Print | Product List | Glossary On
Versions: 1 2 3 4 5 6 7 8 9 10 11 12
848
FTUS44 KLCH 241125
TAFARA
TAF
KARA 241125Z 2412/2512 14005KT P6SM SCT020 SCT250
      TEMPO 2412/2414 5SM BR
     FM241500 15011KT P6SM SCT035 SCT250
     FM250200 14006KT P6SM SCT015=

USA.gov is the U.S. government's official web portal to all federal, state and local government web resources and services.